createdAt,value
2022-10-30T00:00:02.487Z,17.00
2022-10-30T00:00:14.574Z,17.00
2022-10-30T00:00:26.286Z,17.00
2022-10-30T00:00:38.476Z,17.00
2022-10-30T00:00:50.227Z,17.00
2022-10-30T00:01:02.090Z,17.00
2022-10-30T00:01:13.826Z,17.00
2022-10-30T00:01:25.583Z,17.00
2022-10-30T00:01:37.464Z,17.00
2022-10-30T00:01:49.270Z,17.00
2022-10-30T00:02:01.120Z,17.00
2022-10-30T00:02:13.084Z,17.00
2022-10-30T00:02:24.970Z,17.00
2022-10-30T00:02:36.821Z,17.00
2022-10-30T00:02:49.480Z,17.00
2022-10-30T00:03:02.090Z,17.00
2022-10-30T00:03:14.828Z,17.00
2022-10-30T00:03:26.541Z,17.00
2022-10-30T00:03:38.196Z,17.00
2022-10-30T00:03:49.877Z,17.00
2022-10-30T00:04:01.543Z,17.00
2022-10-30T00:04:13.903Z,17.00
2022-10-30T00:04:25.766Z,17.00
2022-10-30T00:04:37.425Z,17.00
2022-10-30T00:04:49.168Z,17.00
2022-10-30T00:05:00.820Z,17.00
2022-10-30T00:05:12.491Z,17.00
2022-10-30T00:05:24.214Z,17.00
2022-10-30T00:05:35.889Z,17.00
2022-10-30T00:05:49.565Z,16.90
2022-10-30T00:06:03.308Z,17.00
2022-10-30T00:06:15.068Z,17.00
2022-10-30T00:06:26.840Z,16.90
2022-10-30T00:06:38.507Z,16.90
2022-10-30T00:06:50.201Z,16.90
2022-10-30T00:07:01.878Z,17.00
2022-10-30T00:07:13.572Z,17.00
2022-10-30T00:07:25.257Z,17.00
2022-10-30T00:07:36.908Z,17.00
2022-10-30T00:07:48.675Z,17.00
2022-10-30T00:08:00.798Z,16.90
2022-10-30T00:08:13.775Z,16.90
2022-10-30T00:08:28.603Z,16.90
2022-10-30T00:08:40.294Z,16.90
2022-10-30T00:08:52.038Z,16.90
2022-10-30T00:09:03.837Z,16.90
2022-10-30T00:09:15.532Z,16.90
2022-10-30T00:09:27.206Z,16.90
2022-10-30T00:09:38.994Z,16.90
2022-10-30T00:09:50.745Z,16.80
2022-10-30T00:10:02.515Z,16.90
2022-10-30T00:10:14.200Z,16.90
2022-10-30T00:10:25.952Z,16.90
2022-10-30T00:10:37.732Z,16.90
2022-10-30T00:10:50.433Z,16.90
2022-10-30T00:11:09.327Z,16.90
2022-10-30T00:11:21.344Z,16.80
2022-10-30T00:11:33.100Z,16.80
2022-10-30T00:11:44.761Z,16.80
2022-10-30T00:11:56.514Z,16.80
2022-10-30T00:12:08.265Z,16.80
2022-10-30T00:12:19.940Z,16.80
2022-10-30T00:12:31.635Z,16.80
2022-10-30T00:12:43.422Z,16.80
2022-10-30T00:12:55.197Z,16.80
2022-10-30T00:13:07.061Z,16.80
2022-10-30T00:13:20.714Z,16.80
2022-10-30T00:13:32.458Z,16.80
2022-10-30T00:13:44.902Z,16.80
2022-10-30T00:13:56.567Z,16.70
2022-10-30T00:14:08.666Z,16.80
2022-10-30T00:14:20.420Z,16.70
2022-10-30T00:14:32.233Z,16.80
2022-10-30T00:14:43.914Z,16.70
2022-10-30T00:14:55.607Z,16.70
2022-10-30T00:15:07.818Z,16.70
2022-10-30T00:15:19.501Z,16.70
2022-10-30T00:15:31.197Z,16.70
2022-10-30T00:15:50.382Z,16.70
2022-10-30T00:16:04.003Z,16.70
2022-10-30T00:16:15.651Z,16.70
2022-10-30T00:16:27.338Z,16.70
2022-10-30T00:16:39.004Z,16.70
2022-10-30T00:16:50.693Z,16.70
2022-10-30T00:17:02.362Z,16.70
2022-10-30T00:17:14.174Z,16.70
2022-10-30T00:17:25.906Z,16.70
2022-10-30T00:17:37.684Z,16.70
2022-10-30T00:17:49.378Z,16.70
2022-10-30T00:18:01.278Z,16.70
2022-10-30T00:18:13.639Z,16.70
2022-10-30T00:18:25.336Z,16.60
2022-10-30T00:18:37.678Z,16.60
2022-10-30T00:18:49.386Z,16.60
2022-10-30T00:19:01.097Z,16.60
2022-10-30T00:19:12.771Z,16.60
2022-10-30T00:19:24.628Z,16.60
2022-10-30T00:19:36.340Z,16.60
2022-10-30T00:19:48.417Z,16.60
2022-10-30T00:20:00.061Z,16.60
2022-10-30T00:20:11.788Z,16.60
2022-10-30T00:20:23.424Z,16.60
2022-10-30T00:20:36.326Z,16.60
2022-10-30T00:20:49.765Z,16.60
2022-10-30T00:21:08.657Z,16.60
2022-10-30T00:21:20.770Z,16.60
2022-10-30T00:21:32.489Z,16.60
2022-10-30T00:21:44.516Z,16.60
2022-10-30T00:22:18.950Z,16.60
2022-10-30T00:22:30.676Z,16.60
2022-10-30T00:22:42.418Z,16.60
2022-10-30T00:22:54.183Z,16.60
2022-10-30T00:23:05.936Z,16.60
2022-10-30T00:23:17.723Z,16.60
2022-10-30T00:23:29.404Z,16.60
2022-10-30T00:23:48.192Z,16.60
2022-10-30T00:24:01.289Z,16.60
2022-10-30T00:24:13.032Z,16.60
2022-10-30T00:24:24.866Z,16.60
2022-10-30T00:24:36.558Z,16.60
2022-10-30T00:24:48.295Z,16.60
2022-10-30T00:24:59.962Z,16.60
2022-10-30T00:25:11.639Z,16.60
2022-10-30T00:25:23.379Z,16.50
2022-10-30T00:25:36.181Z,16.50
2022-10-30T00:25:49.004Z,16.50
2022-10-30T00:26:05.284Z,16.50
2022-10-30T00:26:17.308Z,16.50
2022-10-30T00:26:29.092Z,16.50
2022-10-30T00:26:40.764Z,16.60
2022-10-30T00:26:52.469Z,16.50
2022-10-30T00:27:04.284Z,16.50
2022-10-30T00:27:15.953Z,16.60
2022-10-30T00:27:28.109Z,16.60
2022-10-30T00:27:39.877Z,16.60
2022-10-30T00:27:51.597Z,16.60
2022-10-30T00:28:05.001Z,16.60
2022-10-30T00:28:16.714Z,16.60
2022-10-30T00:28:28.388Z,16.60
2022-10-30T00:28:40.172Z,16.60
2022-10-30T00:28:52.847Z,16.60
2022-10-30T00:29:04.581Z,16.60
2022-10-30T00:29:16.294Z,16.60
2022-10-30T00:29:27.955Z,16.60
2022-10-30T00:29:39.656Z,16.60
2022-10-30T00:29:51.346Z,16.60
2022-10-30T00:30:03.124Z,16.60
2022-10-30T00:30:16.437Z,16.60
2022-10-30T00:30:28.125Z,16.60
2022-10-30T00:30:39.830Z,16.60
2022-10-30T00:30:51.498Z,16.60
2022-10-30T00:31:03.528Z,16.60
2022-10-30T00:31:15.224Z,16.60
2022-10-30T00:31:27.432Z,16.60
2022-10-30T00:31:39.087Z,16.60
2022-10-30T00:31:51.007Z,16.60
2022-10-30T00:32:02.762Z,16.60
2022-10-30T00:32:14.442Z,16.60
2022-10-30T00:32:26.105Z,16.60
2022-10-30T00:32:37.765Z,16.60
2022-10-30T00:32:49.459Z,16.60
2022-10-30T00:33:01.567Z,16.60
2022-10-30T00:33:13.373Z,16.60
2022-10-30T00:33:25.038Z,16.60
2022-10-30T00:33:36.700Z,16.60
2022-10-30T00:33:51.602Z,16.60
2022-10-30T00:34:03.273Z,16.60
2022-10-30T00:34:15.145Z,16.60
2022-10-30T00:34:26.891Z,16.60
2022-10-30T00:34:38.566Z,16.60
2022-10-30T00:34:50.702Z,16.60
2022-10-30T00:35:02.366Z,16.60
2022-10-30T00:35:14.247Z,16.60
2022-10-30T00:35:25.946Z,16.60
2022-10-30T00:35:37.752Z,16.60
2022-10-30T00:35:49.688Z,16.60
2022-10-30T00:36:01.450Z,16.60
2022-10-30T00:36:13.108Z,16.60
2022-10-30T00:36:24.924Z,16.60
2022-10-30T00:36:36.660Z,16.60
2022-10-30T00:36:48.336Z,16.60
2022-10-30T00:37:00.051Z,16.60
2022-10-30T00:37:11.760Z,16.60
2022-10-30T00:37:23.400Z,16.60
2022-10-30T00:37:35.132Z,16.60
2022-10-30T00:37:46.911Z,16.60
2022-10-30T00:38:00.770Z,16.60
2022-10-30T00:38:12.813Z,16.60
2022-10-30T00:38:24.469Z,16.60
2022-10-30T00:38:36.196Z,16.60
2022-10-30T00:38:47.946Z,16.60
2022-10-30T00:38:59.623Z,16.60
2022-10-30T00:39:11.374Z,16.50
2022-10-30T00:39:23.035Z,16.50
2022-10-30T00:39:34.703Z,16.50
2022-10-30T00:39:46.508Z,16.50
2022-10-30T00:39:58.160Z,16.50
2022-10-30T00:40:16.373Z,16.50
2022-10-30T00:40:28.132Z,16.50
2022-10-30T00:40:39.815Z,16.50
2022-10-30T00:40:51.578Z,16.50
2022-10-30T00:41:03.601Z,16.50
2022-10-30T00:41:16.264Z,16.50
2022-10-30T00:41:27.963Z,16.50
2022-10-30T00:41:41.607Z,16.50
2022-10-30T00:41:53.580Z,16.50
2022-10-30T00:42:05.387Z,16.50
2022-10-30T00:42:17.663Z,16.50
2022-10-30T00:42:30.199Z,16.50
2022-10-30T00:42:41.956Z,16.40
2022-10-30T00:42:54.346Z,16.40
2022-10-30T00:43:29.228Z,16.40
2022-10-30T00:43:40.972Z,16.40
2022-10-30T00:43:52.773Z,16.40
2022-10-30T00:44:36.711Z,16.40
2022-10-30T00:44:49.025Z,16.40
2022-10-30T00:45:00.725Z,16.40
2022-10-30T00:45:13.424Z,16.40
2022-10-30T00:45:25.077Z,16.40
2022-10-30T00:45:36.752Z,16.30
2022-10-30T00:45:48.479Z,16.30
2022-10-30T00:46:08.821Z,16.30
2022-10-30T00:46:21.519Z,16.30
2022-10-30T00:46:35.325Z,16.40
2022-10-30T00:46:47.017Z,16.40
2022-10-30T00:46:59.234Z,16.40
2022-10-30T00:47:33.225Z,16.40
2022-10-30T00:47:56.885Z,16.30
2022-10-30T00:48:09.269Z,16.40
2022-10-30T00:48:21.354Z,16.30
2022-10-30T00:48:33.178Z,16.30
2022-10-30T00:48:46.379Z,16.30
2022-10-30T00:49:03.569Z,16.30
2022-10-30T00:49:18.162Z,16.30
2022-10-30T00:49:31.857Z,16.30
2022-10-30T00:50:08.020Z,16.30
2022-10-30T00:50:21.962Z,16.30
2022-10-30T00:50:36.887Z,16.30
2022-10-30T00:50:48.703Z,16.30
2022-10-30T00:51:00.446Z,16.30
2022-10-30T00:51:12.257Z,16.30
2022-10-30T00:51:24.031Z,16.20
2022-10-30T00:51:35.690Z,16.30
2022-10-30T00:51:50.072Z,16.20
2022-10-30T00:52:01.750Z,16.30
2022-10-30T00:52:13.433Z,16.30
2022-10-30T00:52:26.998Z,16.30
2022-10-30T00:52:45.809Z,16.30
2022-10-30T00:53:01.992Z,16.30
2022-10-30T00:53:15.230Z,16.30
2022-10-30T00:53:27.364Z,16.30
2022-10-30T00:53:39.087Z,16.30
2022-10-30T00:53:50.798Z,16.30
2022-10-30T00:54:03.313Z,16.30
2022-10-30T00:54:15.551Z,16.30
2022-10-30T00:54:27.328Z,16.30
2022-10-30T00:54:39.015Z,16.20
2022-10-30T00:54:51.407Z,16.20
2022-10-30T00:55:14.503Z,16.30
2022-10-30T00:55:28.998Z,16.30
2022-10-30T00:55:50.167Z,16.30
2022-10-30T00:56:03.011Z,16.20
2022-10-30T00:56:14.734Z,16.30
2022-10-30T00:56:26.408Z,16.20
2022-10-30T00:56:38.067Z,16.20
2022-10-30T00:56:49.739Z,16.30
2022-10-30T00:57:02.761Z,16.30
2022-10-30T00:57:14.457Z,16.30
2022-10-30T00:57:26.178Z,16.30
2022-10-30T00:57:39.392Z,16.30
2022-10-30T00:57:53.196Z,16.30
2022-10-30T00:58:07.950Z,16.30
2022-10-30T00:58:22.241Z,16.30
2022-10-30T00:58:37.336Z,16.30
2022-10-30T00:59:00.366Z,16.20
2022-10-30T00:59:13.949Z,16.20
2022-10-30T00:59:28.334Z,16.30
2022-10-30T00:59:40.031Z,16.30
2022-10-30T00:59:51.728Z,16.30
2022-10-30T01:00:05.160Z,16.30
2022-10-30T01:00:17.214Z,16.30
2022-10-30T01:00:29.079Z,16.30
2022-10-30T01:00:41.504Z,16.20
2022-10-30T01:00:53.898Z,16.20
2022-10-30T01:01:07.883Z,16.20
2022-10-30T01:01:26.310Z,16.20
2022-10-30T01:01:39.262Z,16.20
2022-10-30T01:01:51.336Z,16.20
2022-10-30T01:02:03.328Z,16.30
2022-10-30T01:02:15.596Z,16.20
2022-10-30T01:02:27.762Z,16.20
2022-10-30T01:02:39.753Z,16.20
2022-10-30T01:02:52.528Z,16.20
2022-10-30T01:03:04.337Z,16.20
2022-10-30T01:03:16.132Z,16.20
2022-10-30T01:03:27.787Z,16.20
2022-10-30T01:03:39.664Z,16.30
2022-10-30T01:03:53.369Z,16.20
2022-10-30T01:04:05.679Z,16.20
2022-10-30T01:04:17.399Z,16.30
2022-10-30T01:04:30.369Z,16.30
2022-10-30T01:04:42.644Z,16.20
2022-10-30T01:04:54.596Z,16.20
2022-10-30T01:05:06.570Z,16.20
2022-10-30T01:05:19.075Z,16.20
2022-10-30T01:05:30.807Z,16.20
2022-10-30T01:05:42.974Z,16.20
2022-10-30T01:05:56.980Z,16.20
2022-10-30T01:06:10.243Z,16.20
2022-10-30T01:06:21.959Z,16.20
2022-10-30T01:06:35.188Z,16.20
2022-10-30T01:06:48.301Z,16.20
2022-10-30T01:07:00.447Z,16.20
2022-10-30T01:07:14.513Z,16.20
2022-10-30T01:07:26.243Z,16.20
2022-10-30T01:07:37.909Z,16.20
2022-10-30T01:07:49.563Z,16.20
2022-10-30T01:08:01.665Z,16.10
2022-10-30T01:08:13.676Z,16.20
2022-10-30T01:08:25.470Z,16.20
2022-10-30T01:08:37.787Z,16.20
2022-10-30T01:08:50.787Z,16.10
2022-10-30T01:09:05.682Z,16.20
2022-10-30T01:09:18.722Z,16.20
2022-10-30T01:09:30.477Z,16.20
2022-10-30T01:09:42.248Z,16.20
2022-10-30T01:09:53.951Z,16.20
2022-10-30T01:10:06.391Z,16.20
2022-10-30T01:10:18.700Z,16.20
2022-10-30T01:10:30.469Z,16.10
2022-10-30T01:10:42.260Z,16.10
2022-10-30T01:10:54.005Z,16.10
2022-10-30T01:11:05.693Z,16.10
2022-10-30T01:11:17.453Z,16.10
2022-10-30T01:11:29.269Z,16.10
2022-10-30T01:11:41.139Z,16.10
2022-10-30T01:11:52.961Z,16.10
2022-10-30T01:12:04.962Z,16.10
2022-10-30T01:12:16.789Z,16.10
2022-10-30T01:12:28.508Z,16.10
2022-10-30T01:12:40.393Z,16.20
2022-10-30T01:12:52.739Z,16.20
2022-10-30T01:13:04.423Z,16.20
2022-10-30T01:13:16.359Z,16.20
2022-10-30T01:13:28.078Z,16.20
2022-10-30T01:13:40.207Z,16.20
2022-10-30T01:13:52.468Z,16.20
2022-10-30T01:14:05.321Z,16.20
2022-10-30T01:14:18.405Z,16.20
2022-10-30T01:14:30.055Z,16.20
2022-10-30T01:14:45.208Z,16.20
2022-10-30T01:14:57.442Z,16.20
2022-10-30T01:15:09.507Z,16.20
2022-10-30T01:15:25.014Z,16.20
2022-10-30T01:15:39.917Z,16.20
2022-10-30T01:16:17.966Z,16.10
2022-10-30T01:16:44.807Z,16.10
2022-10-30T01:17:22.853Z,16.20
2022-10-30T01:18:06.813Z,16.20
2022-10-30T01:18:29.332Z,16.10
2022-10-30T01:18:49.378Z,16.00
2022-10-30T01:19:08.592Z,16.00
2022-10-30T01:19:32.062Z,16.00
2022-10-30T01:20:11.226Z,16.00
2022-10-30T01:20:31.000Z,16.00
2022-10-30T01:21:07.326Z,16.00
2022-10-30T01:21:38.633Z,16.00
2022-10-30T01:22:11.762Z,16.00
2022-10-30T01:22:47.763Z,16.00
2022-10-30T01:23:02.272Z,16.00
2022-10-30T01:23:37.137Z,15.90
2022-10-30T01:23:57.955Z,15.90
2022-10-30T01:24:34.088Z,15.90
2022-10-30T01:25:09.588Z,16.00
2022-10-30T01:25:27.604Z,16.00
2022-10-30T01:25:56.923Z,16.00
2022-10-30T01:26:45.843Z,16.00
2022-10-30T01:27:34.439Z,16.00
2022-10-30T01:28:08.340Z,15.90
2022-10-30T01:28:44.549Z,15.90
2022-10-30T01:29:02.120Z,15.90
2022-10-30T01:29:13.777Z,16.00
2022-10-30T01:29:44.253Z,16.00
2022-10-30T01:30:23.287Z,16.00
2022-10-30T01:31:00.619Z,16.00
2022-10-30T01:31:12.261Z,16.00
2022-10-30T01:31:55.972Z,16.00
2022-10-30T01:32:26.279Z,16.00
2022-10-30T01:33:09.008Z,15.90
2022-10-30T01:33:26.232Z,15.90
2022-10-30T01:33:55.847Z,16.00
2022-10-30T01:34:17.231Z,16.00
2022-10-30T01:35:35.387Z,15.90
2022-10-30T01:36:20.369Z,15.90
2022-10-30T01:36:39.287Z,15.90
2022-10-30T01:37:05.194Z,15.90
2022-10-30T01:37:32.785Z,15.90
2022-10-30T01:37:56.567Z,15.90
2022-10-30T01:38:19.354Z,15.90
2022-10-30T01:38:47.511Z,15.90
2022-10-30T01:39:04.650Z,15.90
2022-10-30T01:39:32.540Z,15.90
2022-10-30T01:39:44.202Z,15.90
2022-10-30T01:39:55.934Z,15.90
2022-10-30T01:40:13.015Z,15.90
2022-10-30T01:40:24.819Z,15.90
2022-10-30T01:40:36.613Z,15.90
2022-10-30T01:40:48.314Z,15.90
2022-10-30T01:40:59.989Z,15.90
2022-10-30T01:41:11.747Z,15.90
2022-10-30T01:41:23.418Z,15.90
2022-10-30T01:41:35.080Z,15.90
2022-10-30T01:41:46.830Z,15.90
2022-10-30T01:41:58.506Z,15.90
2022-10-30T01:42:40.833Z,15.90
2022-10-30T01:42:53.524Z,15.80
2022-10-30T01:43:05.263Z,15.80
2022-10-30T01:43:17.199Z,15.80
2022-10-30T01:43:29.082Z,15.80
2022-10-30T01:43:40.788Z,15.80
2022-10-30T01:43:55.319Z,15.80
2022-10-30T01:44:09.523Z,15.80
2022-10-30T01:44:31.280Z,15.80
2022-10-30T01:44:42.942Z,15.80
2022-10-30T01:44:54.703Z,15.80
2022-10-30T01:45:06.706Z,15.80
2022-10-30T01:45:30.609Z,15.80
2022-10-30T01:46:35.503Z,15.80
2022-10-30T01:46:55.075Z,15.80
2022-10-30T01:47:34.955Z,15.70
2022-10-30T01:47:58.421Z,15.70
2022-10-30T01:48:47.532Z,15.70
2022-10-30T01:49:21.660Z,15.70
2022-10-30T01:49:59.335Z,15.70
2022-10-30T01:57:07.788Z,15.70
2022-10-30T01:57:34.658Z,15.70
2022-10-30T01:58:02.500Z,15.70
2022-10-30T01:58:21.223Z,15.60
2022-10-30T01:58:37.063Z,15.60
2022-10-30T01:59:05.736Z,15.60
2022-10-30T01:59:21.080Z,15.60
2022-10-30T01:59:44.785Z,15.60
2022-10-30T02:00:08.680Z,15.60
2022-10-30T02:00:20.478Z,15.60
2022-10-30T02:00:32.143Z,15.60
2022-10-30T02:00:44.017Z,15.60
2022-10-30T02:00:58.436Z,15.60
2022-10-30T02:01:10.256Z,15.60
2022-10-30T02:01:22.270Z,15.60
2022-10-30T02:01:35.689Z,15.60
2022-10-30T02:01:47.697Z,15.60
2022-10-30T02:01:59.557Z,15.60
2022-10-30T02:02:11.406Z,15.60
2022-10-30T02:02:23.507Z,15.50
2022-10-30T02:02:35.551Z,15.50
2022-10-30T02:02:48.656Z,15.50
2022-10-30T02:03:00.832Z,15.50
2022-10-30T02:03:12.758Z,15.60
2022-10-30T02:03:25.669Z,15.50
2022-10-30T02:03:37.415Z,15.60
2022-10-30T02:03:49.137Z,15.60
2022-10-30T02:04:01.519Z,15.50
2022-10-30T02:04:13.374Z,15.60
2022-10-30T02:04:25.080Z,15.60
2022-10-30T02:04:36.805Z,15.60
2022-10-30T02:04:48.606Z,15.60
2022-10-30T02:05:00.954Z,15.60
2022-10-30T02:05:17.895Z,15.60
2022-10-30T02:05:45.266Z,15.60
2022-10-30T02:05:57.056Z,15.60
2022-10-30T02:06:08.817Z,15.60
2022-10-30T02:06:20.640Z,15.60
2022-10-30T02:06:32.385Z,15.60
2022-10-30T02:06:44.120Z,15.60
2022-10-30T02:06:55.811Z,15.60
2022-10-30T02:07:07.543Z,15.60
2022-10-30T02:07:19.206Z,15.60
2022-10-30T02:07:30.944Z,15.60
2022-10-30T02:07:42.645Z,15.60
2022-10-30T02:07:54.541Z,15.60
2022-10-30T02:08:06.531Z,15.60
2022-10-30T02:08:18.727Z,15.60
2022-10-30T02:08:30.467Z,15.60
2022-10-30T02:08:42.127Z,15.60
2022-10-30T02:08:56.804Z,15.60
2022-10-30T02:09:08.659Z,15.60
2022-10-30T02:09:20.378Z,15.60
2022-10-30T02:09:32.058Z,15.60
2022-10-30T02:09:43.815Z,15.60
2022-10-30T02:09:55.574Z,15.60
2022-10-30T02:10:07.703Z,15.60
2022-10-30T02:10:19.479Z,15.60
2022-10-30T02:10:31.680Z,15.60
2022-10-30T02:10:44.631Z,15.60
2022-10-30T02:10:56.413Z,15.60
2022-10-30T02:11:08.168Z,15.60
2022-10-30T02:11:20.214Z,15.60
2022-10-30T02:11:32.455Z,15.60
2022-10-30T02:11:45.103Z,15.60
2022-10-30T02:11:56.831Z,15.60
2022-10-30T02:12:09.033Z,15.50
2022-10-30T02:12:21.154Z,15.60
2022-10-30T02:12:32.896Z,15.60
2022-10-30T02:12:44.624Z,15.60
2022-10-30T02:12:56.295Z,15.60
2022-10-30T02:13:08.230Z,15.60
2022-10-30T02:13:20.366Z,15.60
2022-10-30T02:13:32.281Z,15.60
2022-10-30T02:13:43.989Z,15.60
2022-10-30T02:13:56.455Z,15.60
2022-10-30T02:14:08.229Z,15.60
2022-10-30T02:14:23.795Z,15.60
2022-10-30T02:14:43.888Z,15.60
2022-10-30T02:14:58.072Z,15.60
2022-10-30T02:15:10.255Z,15.60
2022-10-30T02:15:22.172Z,15.60
2022-10-30T02:15:33.976Z,15.60
2022-10-30T02:15:45.740Z,15.60
2022-10-30T02:15:57.532Z,15.60
2022-10-30T02:16:09.496Z,15.60
2022-10-30T02:16:21.943Z,15.60
2022-10-30T02:16:39.212Z,15.60
2022-10-30T02:16:51.984Z,15.60
2022-10-30T02:17:04.700Z,15.60
2022-10-30T02:17:16.624Z,15.60
2022-10-30T02:17:28.578Z,15.60
2022-10-30T02:17:40.761Z,15.60
2022-10-30T02:17:52.555Z,15.60
2022-10-30T02:18:04.401Z,15.60
2022-10-30T02:18:16.108Z,15.60
2022-10-30T02:18:30.116Z,15.60
2022-10-30T02:18:42.703Z,15.60
2022-10-30T02:18:54.674Z,15.60
2022-10-30T02:19:07.787Z,15.60
2022-10-30T02:19:19.686Z,15.60
2022-10-30T02:19:31.445Z,15.60
2022-10-30T02:19:43.295Z,15.60
2022-10-30T02:19:55.140Z,15.60
2022-10-30T02:20:07.958Z,15.60
2022-10-30T02:20:19.889Z,15.60
2022-10-30T02:20:31.686Z,15.60
2022-10-30T02:20:43.485Z,15.60
2022-10-30T02:20:55.238Z,15.60
2022-10-30T02:21:08.856Z,15.60
2022-10-30T02:21:20.688Z,15.60
2022-10-30T02:21:32.434Z,15.60
2022-10-30T02:21:44.236Z,15.50
2022-10-30T02:21:56.020Z,15.50
2022-10-30T02:22:07.820Z,15.60
2022-10-30T02:22:19.687Z,15.60
2022-10-30T02:22:31.450Z,15.60
2022-10-30T02:22:43.267Z,15.60
2022-10-30T02:22:58.970Z,15.60
2022-10-30T02:23:18.919Z,15.60
2022-10-30T02:23:31.194Z,15.60
2022-10-30T02:23:43.011Z,15.60
2022-10-30T02:23:54.736Z,15.60
2022-10-30T02:24:06.868Z,15.60
2022-10-30T02:24:19.205Z,15.60
2022-10-30T02:24:31.205Z,15.60
2022-10-30T02:24:42.936Z,15.60
2022-10-30T02:24:54.722Z,15.60
2022-10-30T02:25:06.834Z,15.60
2022-10-30T02:25:18.986Z,15.60
2022-10-30T02:25:30.749Z,15.60
2022-10-30T02:25:42.666Z,15.60
2022-10-30T02:25:54.372Z,15.60
2022-10-30T02:26:06.384Z,15.60
2022-10-30T02:26:18.143Z,15.60
2022-10-30T02:26:29.912Z,15.60
2022-10-30T02:26:41.601Z,15.60
2022-10-30T02:26:53.388Z,15.60
2022-10-30T02:27:05.146Z,15.60
2022-10-30T02:27:16.841Z,15.60
2022-10-30T02:27:28.550Z,15.60
2022-10-30T02:27:40.235Z,15.60
2022-10-30T02:27:52.020Z,15.60
2022-10-30T02:28:03.881Z,15.60
2022-10-30T02:28:15.682Z,15.60
2022-10-30T02:28:27.385Z,15.60
2022-10-30T02:28:39.155Z,15.70
2022-10-30T02:28:50.861Z,15.70
2022-10-30T02:29:02.594Z,15.60
2022-10-30T02:29:14.309Z,15.60
2022-10-30T02:29:26.015Z,15.60
2022-10-30T02:29:37.752Z,15.60
2022-10-30T02:29:49.456Z,15.60
2022-10-30T02:30:01.119Z,15.60
2022-10-30T02:30:13.134Z,15.60
2022-10-30T02:30:24.871Z,15.60
2022-10-30T02:30:36.899Z,15.60
2022-10-30T02:30:48.668Z,15.60
2022-10-30T02:31:00.446Z,15.60
2022-10-30T02:31:12.193Z,15.60
2022-10-30T02:31:23.956Z,15.60
2022-10-30T02:31:36.341Z,15.60
2022-10-30T02:31:48.442Z,15.60
2022-10-30T02:32:00.236Z,15.60
2022-10-30T02:32:11.961Z,15.60
2022-10-30T02:32:23.684Z,15.60
2022-10-30T02:32:35.455Z,15.60
2022-10-30T02:32:47.872Z,15.60
2022-10-30T02:33:00.020Z,15.60
2022-10-30T02:33:11.937Z,15.60
2022-10-30T02:33:26.524Z,15.60
2022-10-30T02:33:38.244Z,15.50
2022-10-30T02:33:50.009Z,15.60
2022-10-30T02:34:01.745Z,15.60
2022-10-30T02:34:13.464Z,15.60
2022-10-30T02:34:25.246Z,15.60
2022-10-30T02:34:37.036Z,15.60
2022-10-30T02:34:48.805Z,15.60
2022-10-30T02:35:00.556Z,15.60
2022-10-30T02:35:12.334Z,15.60
2022-10-30T02:35:24.068Z,15.60
2022-10-30T02:35:35.777Z,15.60
2022-10-30T02:35:47.527Z,15.60
2022-10-30T02:35:59.316Z,15.60
2022-10-30T02:36:11.104Z,15.60
2022-10-30T02:36:22.947Z,15.60
2022-10-30T02:36:34.660Z,15.60
2022-10-30T02:36:46.396Z,15.60
2022-10-30T02:36:58.127Z,15.60
2022-10-30T02:37:09.832Z,15.50
2022-10-30T02:37:21.870Z,15.60
2022-10-30T02:37:36.066Z,15.60
2022-10-30T02:37:49.272Z,15.60
2022-10-30T02:38:01.784Z,15.60
2022-10-30T02:38:13.629Z,15.60
2022-10-30T02:38:25.664Z,15.60
2022-10-30T02:38:37.400Z,15.60
2022-10-30T02:38:49.150Z,15.60
2022-10-30T02:39:00.886Z,15.60
2022-10-30T02:39:12.639Z,15.60
2022-10-30T02:39:24.399Z,15.60
2022-10-30T02:39:36.157Z,15.60
2022-10-30T02:39:47.889Z,15.60
2022-10-30T02:40:00.854Z,15.60
2022-10-30T02:40:13.106Z,15.50
2022-10-30T02:40:24.954Z,15.50
2022-10-30T02:40:36.808Z,15.50
2022-10-30T02:40:48.537Z,15.50
2022-10-30T02:41:01.834Z,15.50
2022-10-30T02:41:13.623Z,15.50
2022-10-30T02:41:25.475Z,15.50
2022-10-30T02:41:37.231Z,15.50
2022-10-30T02:41:49.068Z,15.50
2022-10-30T02:42:02.088Z,15.50
2022-10-30T02:42:13.847Z,15.50
2022-10-30T02:42:25.603Z,15.50
2022-10-30T02:42:37.334Z,15.50
2022-10-30T02:42:53.248Z,15.50
2022-10-30T02:43:04.988Z,15.50
2022-10-30T02:43:16.730Z,15.60
2022-10-30T02:43:28.433Z,15.60
2022-10-30T02:43:40.169Z,15.60
2022-10-30T02:43:53.411Z,15.50
2022-10-30T02:44:06.556Z,15.50
2022-10-30T02:44:18.324Z,15.50
2022-10-30T02:44:30.019Z,15.50
2022-10-30T02:44:41.805Z,15.50
2022-10-30T02:44:53.489Z,15.50
2022-10-30T02:45:05.484Z,15.60
2022-10-30T02:45:17.217Z,15.50
2022-10-30T02:45:29.013Z,15.50
2022-10-30T02:45:40.692Z,15.50
2022-10-30T02:45:52.437Z,15.50
2022-10-30T02:46:04.176Z,15.50
2022-10-30T02:46:16.073Z,15.50
2022-10-30T02:46:27.917Z,15.50
2022-10-30T02:46:39.708Z,15.60
2022-10-30T02:46:51.675Z,15.50
2022-10-30T02:47:03.480Z,15.60
2022-10-30T02:47:15.274Z,15.60
2022-10-30T02:47:28.627Z,15.60
2022-10-30T02:47:40.556Z,15.60
2022-10-30T02:47:52.366Z,15.60
2022-10-30T02:48:04.418Z,15.60
2022-10-30T02:48:16.240Z,15.60
2022-10-30T02:48:27.951Z,15.60
2022-10-30T02:48:39.712Z,15.60
2022-10-30T02:48:51.484Z,15.60
2022-10-30T02:49:03.423Z,15.60
2022-10-30T02:49:15.173Z,15.60
2022-10-30T02:49:26.932Z,15.60
2022-10-30T02:49:38.698Z,15.60
2022-10-30T02:49:50.493Z,15.60
2022-10-30T02:50:02.293Z,15.60
2022-10-30T02:50:14.256Z,15.60
2022-10-30T02:50:26.251Z,15.60
2022-10-30T02:50:38.016Z,15.60
2022-10-30T02:50:49.732Z,15.60
2022-10-30T02:51:02.221Z,15.60
2022-10-30T02:51:14.052Z,15.50
2022-10-30T02:51:25.763Z,15.50
2022-10-30T02:51:37.559Z,15.60
2022-10-30T02:51:50.487Z,15.60
2022-10-30T02:52:02.174Z,15.50
2022-10-30T02:52:13.943Z,15.60
2022-10-30T02:52:25.722Z,15.60
2022-10-30T02:52:37.559Z,15.50
2022-10-30T02:52:49.335Z,15.60
2022-10-30T02:53:01.567Z,15.60
2022-10-30T02:53:13.594Z,15.60
2022-10-30T02:53:25.360Z,15.60
2022-10-30T02:53:37.116Z,15.60
2022-10-30T02:53:48.959Z,15.60
2022-10-30T02:54:01.151Z,15.60
2022-10-30T02:54:12.891Z,15.60
2022-10-30T02:54:25.616Z,15.60
2022-10-30T02:54:37.295Z,15.50
2022-10-30T02:54:49.055Z,15.60
2022-10-30T02:55:00.859Z,15.60
2022-10-30T02:55:12.578Z,15.60
2022-10-30T02:55:24.406Z,15.60
2022-10-30T02:55:36.169Z,15.60
2022-10-30T02:55:47.989Z,15.60
2022-10-30T02:56:06.587Z,15.60
2022-10-30T02:56:18.346Z,15.60
2022-10-30T02:56:30.063Z,15.60
2022-10-30T02:56:41.838Z,15.60
2022-10-30T02:56:53.554Z,15.60
2022-10-30T02:57:05.283Z,15.60
2022-10-30T02:57:17.111Z,15.60
2022-10-30T02:57:28.820Z,15.60
2022-10-30T02:57:40.590Z,15.60
2022-10-30T02:57:52.368Z,15.60
2022-10-30T02:58:04.105Z,15.60
2022-10-30T02:58:15.768Z,15.60
2022-10-30T02:58:27.450Z,15.60
2022-10-30T02:58:39.338Z,15.60
2022-10-30T02:58:51.056Z,15.60
2022-10-30T02:59:02.820Z,15.60
2022-10-30T02:59:14.481Z,15.60
2022-10-30T02:59:26.200Z,15.60
2022-10-30T02:59:37.948Z,15.60
2022-10-30T02:59:49.631Z,15.60
2022-10-30T03:00:01.706Z,15.60
2022-10-30T03:00:14.163Z,15.60
2022-10-30T03:00:25.887Z,15.60
2022-10-30T03:00:37.615Z,15.60
2022-10-30T03:00:49.456Z,15.60
2022-10-30T03:01:11.967Z,15.60
2022-10-30T03:01:23.876Z,15.70
2022-10-30T03:01:35.766Z,15.70
2022-10-30T03:01:47.660Z,15.60
2022-10-30T03:01:59.652Z,15.70
2022-10-30T03:02:11.534Z,15.70
2022-10-30T03:02:23.493Z,15.70
2022-10-30T03:02:35.231Z,15.70
2022-10-30T03:02:46.926Z,15.70
2022-10-30T03:02:58.653Z,15.70
2022-10-30T03:03:10.545Z,15.70
2022-10-30T03:03:24.192Z,15.70
2022-10-30T03:03:36.352Z,15.70
2022-10-30T03:03:48.088Z,15.70
2022-10-30T03:03:59.869Z,15.70
2022-10-30T03:04:11.585Z,15.70
2022-10-30T03:04:23.301Z,15.70
2022-10-30T03:04:35.352Z,15.70
2022-10-30T03:04:47.078Z,15.70
2022-10-30T03:04:58.790Z,15.70
2022-10-30T03:05:10.567Z,15.70
2022-10-30T03:05:22.392Z,15.70
2022-10-30T03:05:36.231Z,15.70
2022-10-30T03:05:47.926Z,15.70
2022-10-30T03:06:03.376Z,15.70
2022-10-30T03:06:16.041Z,15.70
2022-10-30T03:06:27.840Z,15.70
2022-10-30T03:06:39.550Z,15.70
2022-10-30T03:06:51.254Z,15.70
2022-10-30T03:07:02.934Z,15.70
2022-10-30T03:07:14.720Z,15.70